sensor_id;sensor_type;location;lat;lon;timestamp;P1;durP1;ratioP1;P2;durP2;ratioP2
30127;SDS011;16942;53.196;6.592;2024-03-22T00:00:31;33.30;;;19.23;;
30127;SDS011;16942;53.196;6.592;2024-03-22T00:02:57;34.93;;;20.00;;
30127;SDS011;16942;53.196;6.592;2024-03-22T00:05:23;33.23;;;19.73;;
30127;SDS011;16942;53.196;6.592;2024-03-22T00:07:50;34.20;;;20.40;;
30127;SDS011;16942;53.196;6.592;2024-03-22T00:10:16;36.07;;;19.57;;
30127;SDS011;16942;53.196;6.592;2024-03-22T00:12:42;38.27;;;19.97;;
30127;SDS011;16942;53.196;6.592;2024-03-22T00:15:08;35.57;;;20.63;;
30127;SDS011;16942;53.196;6.592;2024-03-22T00:17:34;36.00;;;20.30;;
30127;SDS011;16942;53.196;6.592;2024-03-22T00:20:00;35.83;;;20.80;;
30127;SDS011;16942;53.196;6.592;2024-03-22T00:22:26;38.53;;;20.33;;
30127;SDS011;16942;53.196;6.592;2024-03-22T00:24:52;32.17;;;20.23;;
30127;SDS011;16942;53.196;6.592;2024-03-22T00:27:18;35.20;;;21.33;;
30127;SDS011;16942;53.196;6.592;2024-03-22T00:29:44;36.10;;;20.73;;
30127;SDS011;16942;53.196;6.592;2024-03-22T00:32:10;34.73;;;20.70;;
30127;SDS011;16942;53.196;6.592;2024-03-22T00:34:36;35.97;;;21.40;;
30127;SDS011;16942;53.196;6.592;2024-03-22T00:37:02;36.30;;;20.87;;
30127;SDS011;16942;53.196;6.592;2024-03-22T00:39:28;39.67;;;21.83;;
30127;SDS011;16942;53.196;6.592;2024-03-22T00:41:54;38.03;;;21.43;;
30127;SDS011;16942;53.196;6.592;2024-03-22T00:44:20;44.97;;;23.90;;
30127;SDS011;16942;53.196;6.592;2024-03-22T00:46:46;40.07;;;23.00;;
30127;SDS011;16942;53.196;6.592;2024-03-22T00:49:12;39.27;;;22.30;;
30127;SDS011;16942;53.196;6.592;2024-03-22T00:51:38;40.33;;;22.90;;
30127;SDS011;16942;53.196;6.592;2024-03-22T00:54:04;44.50;;;22.67;;
30127;SDS011;16942;53.196;6.592;2024-03-22T00:56:30;42.53;;;22.50;;
30127;SDS011;16942;53.196;6.592;2024-03-22T00:58:56;38.60;;;22.60;;
30127;SDS011;16942;53.196;6.592;2024-03-22T01:01:22;42.73;;;23.40;;
30127;SDS011;16942;53.196;6.592;2024-03-22T01:03:48;43.33;;;23.20;;
30127;SDS011;16942;53.196;6.592;2024-03-22T01:06:14;44.03;;;23.50;;
30127;SDS011;16942;53.196;6.592;2024-03-22T01:08:40;41.97;;;23.73;;
30127;SDS011;16942;53.196;6.592;2024-03-22T01:11:06;45.33;;;24.80;;
30127;SDS011;16942;53.196;6.592;2024-03-22T01:13:32;46.93;;;24.83;;
30127;SDS011;16942;53.196;6.592;2024-03-22T01:15:58;43.87;;;23.77;;
30127;SDS011;16942;53.196;6.592;2024-03-22T01:18:24;47.30;;;25.13;;
30127;SDS011;16942;53.196;6.592;2024-03-22T01:20:50;47.73;;;24.90;;
30127;SDS011;16942;53.196;6.592;2024-03-22T01:23:16;42.77;;;23.17;;
30127;SDS011;16942;53.196;6.592;2024-03-22T01:25:44;47.73;;;24.97;;
30127;SDS011;16942;53.196;6.592;2024-03-22T01:28:10;45.20;;;24.80;;
30127;SDS011;16942;53.196;6.592;2024-03-22T01:30:38;53.60;;;25.97;;
30127;SDS011;16942;53.196;6.592;2024-03-22T01:33:04;48.93;;;25.83;;
30127;SDS011;16942;53.196;6.592;2024-03-22T01:35:30;47.33;;;24.93;;
30127;SDS011;16942;53.196;6.592;2024-03-22T01:37:56;49.57;;;27.10;;
30127;SDS011;16942;53.196;6.592;2024-03-22T01:40:22;50.80;;;27.10;;
30127;SDS011;16942;53.196;6.592;2024-03-22T01:42:48;52.10;;;26.63;;
30127;SDS011;16942;53.196;6.592;2024-03-22T01:45:14;52.67;;;27.40;;
30127;SDS011;16942;53.196;6.592;2024-03-22T01:47:40;48.57;;;26.50;;
30127;SDS011;16942;53.196;6.592;2024-03-22T01:50:07;45.13;;;25.70;;
30127;SDS011;16942;53.196;6.592;2024-03-22T01:52:33;54.30;;;27.23;;
30127;SDS011;16942;53.196;6.592;2024-03-22T01:54:59;52.80;;;27.03;;
30127;SDS011;16942;53.196;6.592;2024-03-22T01:57:25;52.40;;;26.07;;
30127;SDS011;16942;53.196;6.592;2024-03-22T01:59:51;50.43;;;27.27;;
30127;SDS011;16942;53.196;6.592;2024-03-22T02:02:19;51.93;;;26.10;;
30127;SDS011;16942;53.196;6.592;2024-03-22T02:04:45;58.13;;;28.63;;
30127;SDS011;16942;53.196;6.592;2024-03-22T02:07:11;54.80;;;27.67;;
30127;SDS011;16942;53.196;6.592;2024-03-22T02:09:37;56.10;;;27.83;;
30127;SDS011;16942;53.196;6.592;2024-03-22T02:12:04;51.87;;;27.10;;
30127;SDS011;16942;53.196;6.592;2024-03-22T02:14:30;52.57;;;26.77;;
30127;SDS011;16942;53.196;6.592;2024-03-22T02:16:56;51.07;;;28.07;;
30127;SDS011;16942;53.196;6.592;2024-03-22T02:19:22;50.17;;;27.37;;
30127;SDS011;16942;53.196;6.592;2024-03-22T02:21:48;54.97;;;28.80;;
30127;SDS011;16942;53.196;6.592;2024-03-22T02:24:14;54.73;;;29.37;;
30127;SDS011;16942;53.196;6.592;2024-03-22T02:26:40;60.00;;;28.60;;
30127;SDS011;16942;53.196;6.592;2024-03-22T02:29:06;57.60;;;27.87;;
30127;SDS011;16942;53.196;6.592;2024-03-22T02:31:32;60.83;;;29.50;;
30127;SDS011;16942;53.196;6.592;2024-03-22T02:33:58;56.40;;;30.03;;
30127;SDS011;16942;53.196;6.592;2024-03-22T02:36:24;58.23;;;28.87;;
30127;SDS011;16942;53.196;6.592;2024-03-22T02:38:50;63.33;;;29.20;;
30127;SDS011;16942;53.196;6.592;2024-03-22T02:41:16;66.30;;;30.13;;
30127;SDS011;16942;53.196;6.592;2024-03-22T02:43:42;63.43;;;31.37;;
30127;SDS011;16942;53.196;6.592;2024-03-22T02:46:08;56.73;;;30.27;;
30127;SDS011;16942;53.196;6.592;2024-03-22T02:48:34;64.10;;;29.80;;
30127;SDS011;16942;53.196;6.592;2024-03-22T02:51:00;65.23;;;30.40;;
30127;SDS011;16942;53.196;6.592;2024-03-22T02:53:26;62.07;;;31.07;;
30127;SDS011;16942;53.196;6.592;2024-03-22T02:55:52;68.33;;;31.13;;
30127;SDS011;16942;53.196;6.592;2024-03-22T02:58:18;61.40;;;31.40;;
30127;SDS011;16942;53.196;6.592;2024-03-22T03:00:44;61.63;;;31.03;;
30127;SDS011;16942;53.196;6.592;2024-03-22T03:03:10;69.67;;;33.03;;
30127;SDS011;16942;53.196;6.592;2024-03-22T03:05:36;64.53;;;31.73;;
30127;SDS011;16942;53.196;6.592;2024-03-22T03:08:02;65.43;;;32.37;;
30127;SDS011;16942;53.196;6.592;2024-03-22T03:10:29;65.80;;;31.47;;
30127;SDS011;16942;53.196;6.592;2024-03-22T03:12:55;67.00;;;31.13;;
30127;SDS011;16942;53.196;6.592;2024-03-22T03:15:21;65.30;;;30.70;;
30127;SDS011;16942;53.196;6.592;2024-03-22T03:17:47;63.27;;;32.47;;
30127;SDS011;16942;53.196;6.592;2024-03-22T03:20:13;74.07;;;33.80;;
30127;SDS011;16942;53.196;6.592;2024-03-22T03:22:40;66.63;;;31.83;;
30127;SDS011;16942;53.196;6.592;2024-03-22T03:25:06;70.10;;;31.80;;
30127;SDS011;16942;53.196;6.592;2024-03-22T03:27:32;67.10;;;31.50;;
30127;SDS011;16942;53.196;6.592;2024-03-22T03:29:58;66.80;;;31.67;;
30127;SDS011;16942;53.196;6.592;2024-03-22T03:32:24;73.53;;;32.13;;
30127;SDS011;16942;53.196;6.592;2024-03-22T03:34:51;71.40;;;32.80;;
30127;SDS011;16942;53.196;6.592;2024-03-22T03:37:17;72.97;;;32.73;;
30127;SDS011;16942;53.196;6.592;2024-03-22T03:39:43;75.40;;;33.17;;
30127;SDS011;16942;53.196;6.592;2024-03-22T03:42:09;73.17;;;32.33;;
30127;SDS011;16942;53.196;6.592;2024-03-22T03:44:35;74.30;;;34.13;;
30127;SDS011;16942;53.196;6.592;2024-03-22T03:47:01;77.43;;;32.63;;
30127;SDS011;16942;53.196;6.592;2024-03-22T03:49:27;77.20;;;33.53;;
30127;SDS011;16942;53.196;6.592;2024-03-22T03:51:53;70.67;;;32.93;;
30127;SDS011;16942;53.196;6.592;2024-03-22T03:54:19;74.97;;;33.17;;
30127;SDS011;16942;53.196;6.592;2024-03-22T03:56:45;80.27;;;34.40;;
30127;SDS011;16942;53.196;6.592;2024-03-22T03:59:11;75.47;;;32.00;;
30127;SDS011;16942;53.196;6.592;2024-03-22T04:01:37;76.23;;;32.87;;
30127;SDS011;16942;53.196;6.592;2024-03-22T04:04:03;77.30;;;31.90;;
30127;SDS011;16942;53.196;6.592;2024-03-22T04:06:29;76.17;;;32.60;;
30127;SDS011;16942;53.196;6.592;2024-03-22T04:08:55;68.07;;;32.50;;
30127;SDS011;16942;53.196;6.592;2024-03-22T04:11:22;75.07;;;31.17;;
30127;SDS011;16942;53.196;6.592;2024-03-22T04:13:48;71.80;;;30.93;;
30127;SDS011;16942;53.196;6.592;2024-03-22T04:16:14;72.20;;;31.20;;
30127;SDS011;16942;53.196;6.592;2024-03-22T04:18:40;72.67;;;31.70;;
30127;SDS011;16942;53.196;6.592;2024-03-22T04:21:06;73.33;;;31.27;;
30127;SDS011;16942;53.196;6.592;2024-03-22T04:23:32;67.87;;;30.43;;
30127;SDS011;16942;53.196;6.592;2024-03-22T04:25:59;67.37;;;29.50;;
30127;SDS011;16942;53.196;6.592;2024-03-22T04:28:25;69.47;;;29.47;;
30127;SDS011;16942;53.196;6.592;2024-03-22T04:30:58;69.90;;;29.70;;
30127;SDS011;16942;53.196;6.592;2024-03-22T04:33:25;72.10;;;31.60;;
30127;SDS011;16942;53.196;6.592;2024-03-22T04:35:51;72.73;;;31.13;;
30127;SDS011;16942;53.196;6.592;2024-03-22T04:38:17;75.23;;;31.63;;
30127;SDS011;16942;53.196;6.592;2024-03-22T04:40:43;64.57;;;29.53;;
30127;SDS011;16942;53.196;6.592;2024-03-22T04:43:09;63.00;;;31.03;;
30127;SDS011;16942;53.196;6.592;2024-03-22T04:45:35;63.07;;;28.90;;
30127;SDS011;16942;53.196;6.592;2024-03-22T04:48:01;65.60;;;29.77;;
30127;SDS011;16942;53.196;6.592;2024-03-22T04:50:28;66.33;;;30.10;;
30127;SDS011;16942;53.196;6.592;2024-03-22T04:52:54;72.83;;;29.90;;
30127;SDS011;16942;53.196;6.592;2024-03-22T04:55:20;64.10;;;29.47;;
30127;SDS011;16942;53.196;6.592;2024-03-22T04:57:46;71.83;;;29.93;;
30127;SDS011;16942;53.196;6.592;2024-03-22T05:00:12;64.63;;;30.10;;
30127;SDS011;16942;53.196;6.592;2024-03-22T05:02:38;71.77;;;29.03;;
30127;SDS011;16942;53.196;6.592;2024-03-22T05:05:05;60.00;;;28.57;;
30127;SDS011;16942;53.196;6.592;2024-03-22T05:07:32;66.57;;;28.53;;
30127;SDS011;16942;53.196;6.592;2024-03-22T05:09:58;71.70;;;30.63;;
30127;SDS011;16942;53.196;6.592;2024-03-22T05:12:24;61.30;;;27.93;;
30127;SDS011;16942;53.196;6.592;2024-03-22T05:14:50;57.17;;;26.60;;
30127;SDS011;16942;53.196;6.592;2024-03-22T05:17:16;63.03;;;27.70;;
30127;SDS011;16942;53.196;6.592;2024-03-22T05:19:42;59.13;;;27.67;;
30127;SDS011;16942;53.196;6.592;2024-03-22T05:22:08;61.40;;;27.50;;
30127;SDS011;16942;53.196;6.592;2024-03-22T05:24:34;54.80;;;26.77;;
30127;SDS011;16942;53.196;6.592;2024-03-22T05:27:00;60.27;;;26.80;;
30127;SDS011;16942;53.196;6.592;2024-03-22T05:29:26;67.00;;;27.47;;
30127;SDS011;16942;53.196;6.592;2024-03-22T05:31:52;59.47;;;26.43;;
30127;SDS011;16942;53.196;6.592;2024-03-22T05:34:18;64.27;;;27.83;;
30127;SDS011;16942;53.196;6.592;2024-03-22T05:36:45;59.93;;;25.47;;
30127;SDS011;16942;53.196;6.592;2024-03-22T05:39:11;58.10;;;25.77;;
30127;SDS011;16942;53.196;6.592;2024-03-22T05:41:37;55.73;;;25.27;;
30127;SDS011;16942;53.196;6.592;2024-03-22T05:44:03;54.80;;;25.67;;
30127;SDS011;16942;53.196;6.592;2024-03-22T05:46:29;59.03;;;26.20;;
30127;SDS011;16942;53.196;6.592;2024-03-22T05:48:56;64.47;;;27.20;;
30127;SDS011;16942;53.196;6.592;2024-03-22T05:51:22;57.07;;;26.27;;
30127;SDS011;16942;53.196;6.592;2024-03-22T05:53:48;56.77;;;24.83;;
30127;SDS011;16942;53.196;6.592;2024-03-22T05:56:14;59.53;;;26.20;;
30127;SDS011;16942;53.196;6.592;2024-03-22T05:58:40;63.57;;;25.03;;
30127;SDS011;16942;53.196;6.592;2024-03-22T06:01:06;51.63;;;23.77;;
30127;SDS011;16942;53.196;6.592;2024-03-22T06:03:32;50.93;;;25.00;;
30127;SDS011;16942;53.196;6.592;2024-03-22T06:05:58;55.47;;;24.80;;
30127;SDS011;16942;53.196;6.592;2024-03-22T06:08:28;52.67;;;24.03;;
30127;SDS011;16942;53.196;6.592;2024-03-22T06:10:54;50.50;;;22.13;;
30127;SDS011;16942;53.196;6.592;2024-03-22T06:13:23;47.00;;;22.80;;
30127;SDS011;16942;53.196;6.592;2024-03-22T06:15:49;50.50;;;23.67;;
30127;SDS011;16942;53.196;6.592;2024-03-22T06:18:16;50.73;;;22.30;;
30127;SDS011;16942;53.196;6.592;2024-03-22T06:20:42;45.90;;;22.33;;
30127;SDS011;16942;53.196;6.592;2024-03-22T06:23:08;45.00;;;21.33;;
30127;SDS011;16942;53.196;6.592;2024-03-22T06:25:34;40.00;;;18.70;;
30127;SDS011;16942;53.196;6.592;2024-03-22T06:28:01;43.30;;;20.83;;
30127;SDS011;16942;53.196;6.592;2024-03-22T06:30:27;50.53;;;19.83;;
30127;SDS011;16942;53.196;6.592;2024-03-22T06:32:53;45.33;;;19.03;;
30127;SDS011;16942;53.196;6.592;2024-03-22T06:35:22;36.50;;;19.23;;
30127;SDS011;16942;53.196;6.592;2024-03-22T06:37:48;39.10;;;18.10;;
30127;SDS011;16942;53.196;6.592;2024-03-22T06:40:14;40.57;;;18.60;;
30127;SDS011;16942;53.196;6.592;2024-03-22T06:42:40;43.77;;;18.80;;
30127;SDS011;16942;53.196;6.592;2024-03-22T06:45:06;44.20;;;19.10;;
30127;SDS011;16942;53.196;6.592;2024-03-22T06:47:32;40.40;;;17.83;;
30127;SDS011;16942;53.196;6.592;2024-03-22T06:49:58;44.80;;;18.70;;
30127;SDS011;16942;53.196;6.592;2024-03-22T06:52:24;40.23;;;17.60;;
30127;SDS011;16942;53.196;6.592;2024-03-22T06:54:50;44.80;;;16.73;;
30127;SDS011;16942;53.196;6.592;2024-03-22T06:57:17;41.30;;;17.27;;
30127;SDS011;16942;53.196;6.592;2024-03-22T06:59:43;34.47;;;17.10;;
30127;SDS011;16942;53.196;6.592;2024-03-22T07:02:09;36.67;;;16.27;;
30127;SDS011;16942;53.196;6.592;2024-03-22T07:04:35;36.77;;;16.30;;
30127;SDS011;16942;53.196;6.592;2024-03-22T07:07:01;37.83;;;15.57;;
30127;SDS011;16942;53.196;6.592;2024-03-22T07:09:27;37.23;;;16.80;;
30127;SDS011;16942;53.196;6.592;2024-03-22T07:11:55;33.33;;;14.40;;
30127;SDS011;16942;53.196;6.592;2024-03-22T07:14:21;36.57;;;16.50;;
30127;SDS011;16942;53.196;6.592;2024-03-22T07:16:49;34.67;;;15.73;;
30127;SDS011;16942;53.196;6.592;2024-03-22T07:19:15;35.37;;;16.13;;
30127;SDS011;16942;53.196;6.592;2024-03-22T07:21:41;34.60;;;15.60;;
30127;SDS011;16942;53.196;6.592;2024-03-22T07:24:07;33.60;;;15.07;;
30127;SDS011;16942;53.196;6.592;2024-03-22T07:26:33;32.63;;;14.67;;
30127;SDS011;16942;53.196;6.592;2024-03-22T07:28:59;36.90;;;15.17;;
30127;SDS011;16942;53.196;6.592;2024-03-22T07:31:26;28.70;;;14.57;;
30127;SDS011;16942;53.196;6.592;2024-03-22T07:33:53;32.13;;;14.47;;
30127;SDS011;16942;53.196;6.592;2024-03-22T07:36:19;35.33;;;15.10;;
30127;SDS011;16942;53.196;6.592;2024-03-22T07:38:45;35.13;;;14.47;;
30127;SDS011;16942;53.196;6.592;2024-03-22T07:41:11;33.67;;;14.67;;
30127;SDS011;16942;53.196;6.592;2024-03-22T07:43:37;35.17;;;14.63;;
30127;SDS011;16942;53.196;6.592;2024-03-22T07:46:03;30.53;;;14.33;;
30127;SDS011;16942;53.196;6.592;2024-03-22T07:48:29;30.73;;;13.70;;
30127;SDS011;16942;53.196;6.592;2024-03-22T07:50:59;30.10;;;14.00;;
30127;SDS011;16942;53.196;6.592;2024-03-22T07:53:25;33.57;;;14.30;;
30127;SDS011;16942;53.196;6.592;2024-03-22T07:55:51;26.87;;;12.90;;
30127;SDS011;16942;53.196;6.592;2024-03-22T07:58:17;28.67;;;13.43;;
30127;SDS011;16942;53.196;6.592;2024-03-22T08:00:44;29.10;;;13.47;;
30127;SDS011;16942;53.196;6.592;2024-03-22T08:03:16;31.73;;;13.83;;
30127;SDS011;16942;53.196;6.592;2024-03-22T08:05:42;29.40;;;13.37;;
30127;SDS011;16942;53.196;6.592;2024-03-22T08:08:08;27.50;;;13.73;;
30127;SDS011;16942;53.196;6.592;2024-03-22T08:10:34;27.73;;;13.30;;
30127;SDS011;16942;53.196;6.592;2024-03-22T08:13:00;27.37;;;12.43;;
30127;SDS011;16942;53.196;6.592;2024-03-22T08:15:26;31.77;;;12.13;;
30127;SDS011;16942;53.196;6.592;2024-03-22T08:17:52;22.77;;;12.10;;
30127;SDS011;16942;53.196;6.592;2024-03-22T08:20:18;24.77;;;12.40;;
30127;SDS011;16942;53.196;6.592;2024-03-22T08:22:44;25.53;;;11.27;;
30127;SDS011;16942;53.196;6.592;2024-03-22T08:25:10;25.30;;;12.40;;
30127;SDS011;16942;53.196;6.592;2024-03-22T08:27:37;33.00;;;11.80;;
30127;SDS011;16942;53.196;6.592;2024-03-22T08:30:03;21.50;;;11.47;;
30127;SDS011;16942;53.196;6.592;2024-03-22T08:32:29;27.73;;;12.63;;
30127;SDS011;16942;53.196;6.592;2024-03-22T08:34:55;20.53;;;10.87;;
30127;SDS011;16942;53.196;6.592;2024-03-22T08:37:21;18.43;;;10.10;;
30127;SDS011;16942;53.196;6.592;2024-03-22T08:39:47;16.87;;;9.70;;
30127;SDS011;16942;53.196;6.592;2024-03-22T08:42:13;22.17;;;10.60;;
30127;SDS011;16942;53.196;6.592;2024-03-22T08:44:39;20.60;;;10.37;;
30127;SDS011;16942;53.196;6.592;2024-03-22T08:47:05;16.60;;;8.90;;
30127;SDS011;16942;53.196;6.592;2024-03-22T08:49:31;16.63;;;8.67;;
30127;SDS011;16942;53.196;6.592;2024-03-22T08:51:57;17.47;;;8.97;;
30127;SDS011;16942;53.196;6.592;2024-03-22T08:54:23;17.77;;;8.10;;
30127;SDS011;16942;53.196;6.592;2024-03-22T08:56:49;15.20;;;8.53;;
30127;SDS011;16942;53.196;6.592;2024-03-22T08:59:15;13.17;;;7.97;;
30127;SDS011;16942;53.196;6.592;2024-03-22T09:01:41;13.03;;;7.33;;
30127;SDS011;16942;53.196;6.592;2024-03-22T09:04:07;14.07;;;6.73;;
30127;SDS011;16942;53.196;6.592;2024-03-22T09:06:33;10.13;;;6.63;;
30127;SDS011;16942;53.196;6.592;2024-03-22T09:08:59;10.20;;;6.60;;
30127;SDS011;16942;53.196;6.592;2024-03-22T09:11:25;10.80;;;6.43;;
30127;SDS011;16942;53.196;6.592;2024-03-22T09:13:54;10.03;;;6.00;;
30127;SDS011;16942;53.196;6.592;2024-03-22T09:16:20;9.40;;;6.20;;
30127;SDS011;16942;53.196;6.592;2024-03-22T09:18:46;12.40;;;5.63;;
30127;SDS011;16942;53.196;6.592;2024-03-22T09:21:12;8.20;;;6.03;;
30127;SDS011;16942;53.196;6.592;2024-03-22T09:23:38;8.70;;;5.90;;
30127;SDS011;16942;53.196;6.592;2024-03-22T09:26:05;8.87;;;5.47;;
30127;SDS011;16942;53.196;6.592;2024-03-22T09:28:31;11.23;;;5.90;;
30127;SDS011;16942;53.196;6.592;2024-03-22T09:30:57;10.90;;;5.90;;
30127;SDS011;16942;53.196;6.592;2024-03-22T09:33:23;8.33;;;5.17;;
30127;SDS011;16942;53.196;6.592;2024-03-22T09:35:49;7.90;;;5.70;;
30127;SDS011;16942;53.196;6.592;2024-03-22T09:38:15;6.87;;;5.17;;
30127;SDS011;16942;53.196;6.592;2024-03-22T09:40:42;8.00;;;5.27;;
30127;SDS011;16942;53.196;6.592;2024-03-22T09:43:08;9.47;;;5.63;;
30127;SDS011;16942;53.196;6.592;2024-03-22T09:45:35;7.03;;;5.30;;
30127;SDS011;16942;53.196;6.592;2024-03-22T09:48:01;8.13;;;5.47;;
30127;SDS011;16942;53.196;6.592;2024-03-22T09:50:28;6.47;;;4.60;;
30127;SDS011;16942;53.196;6.592;2024-03-22T09:52:54;11.40;;;5.80;;
30127;SDS011;16942;53.196;6.592;2024-03-22T09:55:22;8.97;;;4.20;;
30127;SDS011;16942;53.196;6.592;2024-03-22T09:57:48;8.93;;;5.30;;
30127;SDS011;16942;53.196;6.592;2024-03-22T10:00:20;7.97;;;5.30;;
30127;SDS011;16942;53.196;6.592;2024-03-22T10:02:51;6.67;;;4.67;;
30127;SDS011;16942;53.196;6.592;2024-03-22T10:05:18;9.40;;;5.07;;
30127;SDS011;16942;53.196;6.592;2024-03-22T10:07:44;6.53;;;4.77;;
30127;SDS011;16942;53.196;6.592;2024-03-22T10:10:10;6.03;;;4.57;;
30127;SDS011;16942;53.196;6.592;2024-03-22T10:12:37;5.53;;;4.10;;
30127;SDS011;16942;53.196;6.592;2024-03-22T10:15:04;8.63;;;4.60;;
30127;SDS011;16942;53.196;6.592;2024-03-22T10:17:33;5.50;;;4.17;;
30127;SDS011;16942;53.196;6.592;2024-03-22T10:20:00;6.40;;;4.47;;
30127;SDS011;16942;53.196;6.592;2024-03-22T10:22:26;5.23;;;4.03;;
30127;SDS011;16942;53.196;6.592;2024-03-22T10:24:52;6.00;;;4.10;;
30127;SDS011;16942;53.196;6.592;2024-03-22T10:27:18;7.97;;;3.93;;
30127;SDS011;16942;53.196;6.592;2024-03-22T10:29:45;4.33;;;3.10;;
30127;SDS011;16942;53.196;6.592;2024-03-22T10:32:11;4.70;;;3.10;;
30127;SDS011;16942;53.196;6.592;2024-03-22T10:34:37;3.37;;;2.80;;
30127;SDS011;16942;53.196;6.592;2024-03-22T10:37:06;4.47;;;3.00;;
30127;SDS011;16942;53.196;6.592;2024-03-22T10:39:34;3.93;;;3.03;;
30127;SDS011;16942;53.196;6.592;2024-03-22T10:42:00;4.00;;;2.80;;
30127;SDS011;16942;53.196;6.592;2024-03-22T10:44:26;4.23;;;2.77;;
30127;SDS011;16942;53.196;6.592;2024-03-22T10:46:52;4.00;;;3.00;;
30127;SDS011;16942;53.196;6.592;2024-03-22T10:49:21;3.43;;;2.57;;
30127;SDS011;16942;53.196;6.592;2024-03-22T10:51:57;5.10;;;3.30;;
30127;SDS011;16942;53.196;6.592;2024-03-22T10:54:25;4.27;;;3.13;;
30127;SDS011;16942;53.196;6.592;2024-03-22T10:56:51;5.70;;;4.00;;
30127;SDS011;16942;53.196;6.592;2024-03-22T10:59:24;4.13;;;2.93;;
30127;SDS011;16942;53.196;6.592;2024-03-22T11:01:50;4.43;;;2.50;;
30127;SDS011;16942;53.196;6.592;2024-03-22T11:04:19;3.87;;;2.80;;
30127;SDS011;16942;53.196;6.592;2024-03-22T11:06:51;4.53;;;2.77;;
30127;SDS011;16942;53.196;6.592;2024-03-22T11:09:26;4.23;;;2.53;;
30127;SDS011;16942;53.196;6.592;2024-03-22T11:11:53;3.37;;;2.33;;
30127;SDS011;16942;53.196;6.592;2024-03-22T11:14:19;1.87;;;1.50;;
30127;SDS011;16942;53.196;6.592;2024-03-22T11:16:46;3.03;;;1.77;;
30127;SDS011;16942;53.196;6.592;2024-03-22T11:19:12;2.43;;;1.73;;
30127;SDS011;16942;53.196;6.592;2024-03-22T11:21:38;4.00;;;1.87;;
30127;SDS011;16942;53.196;6.592;2024-03-22T11:24:04;1.90;;;1.63;;
30127;SDS011;16942;53.196;6.592;2024-03-22T11:26:31;2.10;;;1.57;;
30127;SDS011;16942;53.196;6.592;2024-03-22T11:28:57;2.93;;;1.80;;
30127;SDS011;16942;53.196;6.592;2024-03-22T11:31:23;2.63;;;2.00;;
30127;SDS011;16942;53.196;6.592;2024-03-22T11:33:52;4.27;;;2.83;;
30127;SDS011;16942;53.196;6.592;2024-03-22T11:36:18;2.70;;;1.87;;
30127;SDS011;16942;53.196;6.592;2024-03-22T11:38:44;3.83;;;2.10;;
30127;SDS011;16942;53.196;6.592;2024-03-22T11:41:11;3.27;;;2.20;;
30127;SDS011;16942;53.196;6.592;2024-03-22T11:43:41;4.17;;;1.73;;
30127;SDS011;16942;53.196;6.592;2024-03-22T11:46:08;3.37;;;1.63;;
30127;SDS011;16942;53.196;6.592;2024-03-22T11:48:38;2.87;;;1.70;;
30127;SDS011;16942;53.196;6.592;2024-03-22T11:51:04;2.20;;;1.70;;
30127;SDS011;16942;53.196;6.592;2024-03-22T11:53:31;3.37;;;1.90;;
30127;SDS011;16942;53.196;6.592;2024-03-22T11:55:57;2.37;;;1.70;;
30127;SDS011;16942;53.196;6.592;2024-03-22T11:58:26;7.97;;;2.03;;
30127;SDS011;16942;53.196;6.592;2024-03-22T12:00:52;2.03;;;1.50;;
30127;SDS011;16942;53.196;6.592;2024-03-22T12:03:18;1.93;;;1.57;;
30127;SDS011;16942;53.196;6.592;2024-03-22T12:05:44;2.73;;;1.50;;
30127;SDS011;16942;53.196;6.592;2024-03-22T12:08:10;5.37;;;1.73;;
30127;SDS011;16942;53.196;6.592;2024-03-22T12:10:36;2.33;;;1.20;;
30127;SDS011;16942;53.196;6.592;2024-03-22T12:13:02;1.70;;;1.23;;
30127;SDS011;16942;53.196;6.592;2024-03-22T12:15:28;3.47;;;1.63;;
30127;SDS011;16942;53.196;6.592;2024-03-22T12:17:54;2.83;;;1.30;;
30127;SDS011;16942;53.196;6.592;2024-03-22T12:20:20;5.00;;;1.50;;
30127;SDS011;16942;53.196;6.592;2024-03-22T12:22:46;3.07;;;1.47;;
30127;SDS011;16942;53.196;6.592;2024-03-22T12:25:12;7.80;;;2.13;;
30127;SDS011;16942;53.196;6.592;2024-03-22T12:27:38;3.77;;;1.77;;
30127;SDS011;16942;53.196;6.592;2024-03-22T12:30:05;3.03;;;1.90;;
30127;SDS011;16942;53.196;6.592;2024-03-22T12:32:31;3.07;;;2.10;;
30127;SDS011;16942;53.196;6.592;2024-03-22T12:34:57;4.93;;;2.33;;
30127;SDS011;16942;53.196;6.592;2024-03-22T12:37:23;4.70;;;2.00;;
30127;SDS011;16942;53.196;6.592;2024-03-22T12:39:49;2.63;;;1.93;;
30127;SDS011;16942;53.196;6.592;2024-03-22T12:42:17;4.33;;;2.07;;
30127;SDS011;16942;53.196;6.592;2024-03-22T12:44:43;3.53;;;2.27;;
30127;SDS011;16942;53.196;6.592;2024-03-22T12:47:09;4.70;;;2.47;;
30127;SDS011;16942;53.196;6.592;2024-03-22T12:49:35;4.90;;;2.40;;
30127;SDS011;16942;53.196;6.592;2024-03-22T12:52:01;8.23;;;2.70;;
30127;SDS011;16942;53.196;6.592;2024-03-22T12:54:28;5.87;;;3.40;;
30127;SDS011;16942;53.196;6.592;2024-03-22T12:56:54;8.00;;;3.20;;
30127;SDS011;16942;53.196;6.592;2024-03-22T12:59:20;5.00;;;3.00;;
30127;SDS011;16942;53.196;6.592;2024-03-22T13:01:46;8.77;;;3.20;;
30127;SDS011;16942;53.196;6.592;2024-03-22T13:04:12;7.80;;;3.93;;
30127;SDS011;16942;53.196;6.592;2024-03-22T13:06:38;8.43;;;3.10;;
30127;SDS011;16942;53.196;6.592;2024-03-22T13:09:04;9.87;;;3.40;;
30127;SDS011;16942;53.196;6.592;2024-03-22T13:11:31;9.27;;;3.07;;
30127;SDS011;16942;53.196;6.592;2024-03-22T13:13:57;8.57;;;3.40;;
30127;SDS011;16942;53.196;6.592;2024-03-22T13:16:24;15.10;;;3.40;;
30127;SDS011;16942;53.196;6.592;2024-03-22T13:18:50;8.87;;;3.40;;
30127;SDS011;16942;53.196;6.592;2024-03-22T13:21:16;11.37;;;3.30;;
30127;SDS011;16942;53.196;6.592;2024-03-22T13:23:43;8.27;;;3.10;;
30127;SDS011;16942;53.196;6.592;2024-03-22T13:26:09;12.67;;;3.60;;
30127;SDS011;16942;53.196;6.592;2024-03-22T13:28:35;16.27;;;4.37;;
30127;SDS011;16942;53.196;6.592;2024-03-22T13:31:01;17.67;;;3.60;;
30127;SDS011;16942;53.196;6.592;2024-03-22T13:33:28;11.23;;;3.63;;
30127;SDS011;16942;53.196;6.592;2024-03-22T13:35:54;13.80;;;3.23;;
30127;SDS011;16942;53.196;6.592;2024-03-22T13:38:20;10.97;;;3.57;;
30127;SDS011;16942;53.196;6.592;2024-03-22T13:40:53;18.53;;;4.40;;
30127;SDS011;16942;53.196;6.592;2024-03-22T13:43:19;13.43;;;4.33;;
30127;SDS011;16942;53.196;6.592;2024-03-22T13:45:45;11.10;;;4.07;;
30127;SDS011;16942;53.196;6.592;2024-03-22T13:48:11;19.20;;;5.20;;
30127;SDS011;16942;53.196;6.592;2024-03-22T13:50:37;13.10;;;4.20;;
30127;SDS011;16942;53.196;6.592;2024-03-22T13:53:03;15.33;;;4.70;;
30127;SDS011;16942;53.196;6.592;2024-03-22T13:55:29;14.20;;;4.20;;
30127;SDS011;16942;53.196;6.592;2024-03-22T13:57:55;26.90;;;4.43;;
30127;SDS011;16942;53.196;6.592;2024-03-22T14:00:21;16.60;;;4.53;;
30127;SDS011;16942;53.196;6.592;2024-03-22T14:02:50;16.60;;;4.87;;
30127;SDS011;16942;53.196;6.592;2024-03-22T14:05:18;19.37;;;5.03;;
30127;SDS011;16942;53.196;6.592;2024-03-22T14:07:44;11.97;;;3.20;;
30127;SDS011;16942;53.196;6.592;2024-03-22T14:10:10;13.63;;;2.97;;
30127;SDS011;16942;53.196;6.592;2024-03-22T14:12:41;11.67;;;2.43;;
30127;SDS011;16942;53.196;6.592;2024-03-22T14:15:07;14.57;;;2.83;;
30127;SDS011;16942;53.196;6.592;2024-03-22T14:17:33;10.27;;;2.57;;
30127;SDS011;16942;53.196;6.592;2024-03-22T14:19:59;13.97;;;3.30;;
30127;SDS011;16942;53.196;6.592;2024-03-22T14:22:25;16.67;;;3.37;;
30127;SDS011;16942;53.196;6.592;2024-03-22T14:24:51;12.87;;;3.60;;